createdAt,value
2023-03-21T00:00:42.676Z,96.98
2023-03-21T00:03:09.161Z,97.07
2023-03-21T00:05:42.784Z,96.76
2023-03-21T00:08:11.642Z,96.71
2023-03-21T00:10:43.664Z,96.78
2023-03-21T00:13:15.755Z,97.12
2023-03-21T00:16:05.799Z,96.66
2023-03-21T00:18:42.135Z,96.58
2023-03-21T00:21:39.609Z,96.17
2023-03-21T00:24:01.963Z,96.96
2023-03-21T00:26:28.574Z,96.93
2023-03-21T00:28:54.924Z,96.83
2023-03-21T00:31:21.490Z,97.37
2023-03-21T00:33:48.357Z,97.09
2023-03-21T00:36:15.937Z,97.18
2023-03-21T00:38:42.455Z,97.20
2023-03-21T00:41:23.390Z,96.34
2023-03-21T00:43:55.393Z,97.01
2023-03-21T00:46:23.524Z,96.85
2023-03-21T00:48:52.042Z,97.37
2023-03-21T00:51:25.862Z,96.85
2023-03-21T00:53:56.842Z,96.74
2023-03-21T00:56:23.357Z,97.20
2023-03-21T00:58:49.798Z,96.54
2023-03-21T01:01:16.841Z,97.24
2023-03-21T01:03:47.864Z,96.61
2023-03-21T01:06:14.839Z,97.52
2023-03-21T01:08:58.593Z,97.37
2023-03-21T01:11:28.525Z,97.54
2023-03-21T01:14:07.218Z,97.68
2023-03-21T01:16:38.380Z,97.06
2023-03-21T01:19:09.383Z,97.28
2023-03-21T01:21:38.676Z,97.29
2023-03-21T01:24:05.564Z,97.00
2023-03-21T01:26:32.633Z,97.27
2023-03-21T01:28:59.086Z,97.36
2023-03-21T01:31:25.787Z,97.57
2023-03-21T01:33:52.171Z,97.09
2023-03-21T01:36:23.503Z,97.45
2023-03-21T01:38:51.115Z,97.62
2023-03-21T01:41:36.732Z,97.15
2023-03-21T01:44:07.280Z,96.67
2023-03-21T01:46:51.799Z,97.59
2023-03-21T01:49:28.886Z,97.74
2023-03-21T01:52:06.561Z,97.03
2023-03-21T01:54:39.701Z,97.82
2023-03-21T01:57:09.839Z,97.29
2023-03-21T01:59:41.113Z,97.20
2023-03-21T02:02:17.861Z,97.11
2023-03-21T02:04:51.330Z,97.19
2023-03-21T02:07:36.291Z,97.49
2023-03-21T02:10:07.157Z,97.81
2023-03-21T02:12:34.064Z,97.63
2023-03-21T02:15:00.787Z,97.15
2023-03-21T02:17:54.196Z,98.02
2023-03-21T02:20:54.426Z,97.34
2023-03-21T02:23:49.382Z,97.00
2023-03-21T02:26:58.066Z,97.20
2023-03-21T02:30:13.030Z,97.13
2023-03-21T02:33:05.585Z,97.68
2023-03-21T02:35:34.011Z,97.52
2023-03-21T02:38:08.663Z,97.01
2023-03-21T02:40:46.462Z,96.63
2023-03-21T02:43:27.023Z,96.90
2023-03-21T02:46:01.501Z,97.19
2023-03-21T02:48:44.764Z,97.13
2023-03-21T02:51:21.080Z,97.61
2023-03-21T02:54:16.192Z,97.25
2023-03-21T02:56:41.412Z,96.81
2023-03-21T02:59:08.716Z,97.59
2023-03-21T03:01:36.023Z,97.29
2023-03-21T03:04:02.646Z,97.27
2023-03-21T03:07:04.574Z,97.56
2023-03-21T03:09:48.969Z,97.47
2023-03-21T03:12:33.838Z,97.46
2023-03-21T03:15:45.674Z,97.63
2023-03-21T03:18:33.457Z,97.26
2023-03-21T03:21:05.633Z,97.71
2023-03-21T03:23:48.787Z,97.16
2023-03-21T03:26:21.563Z,96.73
2023-03-21T03:28:53.010Z,97.21
2023-03-21T03:31:27.040Z,96.89
2023-03-21T03:33:57.454Z,97.08
2023-03-21T03:36:32.831Z,96.97
2023-03-21T03:39:04.393Z,96.79
2023-03-21T03:41:57.733Z,97.72
2023-03-21T03:44:21.007Z,97.18
2023-03-21T03:46:51.141Z,97.10
2023-03-21T03:49:22.860Z,97.21
2023-03-21T03:52:04.300Z,96.90
2023-03-21T03:54:37.169Z,96.78
2023-03-21T03:57:05.214Z,96.98
2023-03-21T03:59:35.664Z,97.08
2023-03-21T04:02:02.363Z,96.27
2023-03-21T04:04:28.962Z,96.59
2023-03-21T04:06:57.913Z,97.08
2023-03-21T04:09:40.885Z,97.19
2023-03-21T04:12:09.799Z,96.82
2023-03-21T04:14:44.326Z,97.49
2023-03-21T04:17:11.298Z,96.51
2023-03-21T04:19:37.830Z,97.20
2023-03-21T04:22:04.190Z,97.31
2023-03-21T04:24:33.702Z,96.63
2023-03-21T04:27:01.113Z,96.90
2023-03-21T04:29:29.644Z,96.68
2023-03-21T04:31:56.735Z,97.18
2023-03-21T04:34:24.098Z,96.73
2023-03-21T04:36:50.849Z,97.21
2023-03-21T04:39:18.201Z,96.45
2023-03-21T04:41:46.226Z,97.44
2023-03-21T04:44:15.515Z,97.28
2023-03-21T04:46:42.744Z,96.91
2023-03-21T04:49:09.709Z,97.37
2023-03-21T04:51:36.580Z,97.20
2023-03-21T04:54:03.601Z,97.50
2023-03-21T04:56:33.978Z,97.38
2023-03-21T04:59:05.381Z,97.50
2023-03-21T05:01:31.863Z,97.63
2023-03-21T05:03:59.607Z,97.00
2023-03-21T05:06:27.784Z,96.52
2023-03-21T05:08:56.645Z,96.85
2023-03-21T05:11:23.283Z,97.31
2023-03-21T05:13:49.623Z,96.44
2023-03-21T05:16:16.016Z,96.56
2023-03-21T05:18:42.523Z,96.58
2023-03-21T05:21:10.596Z,96.93
2023-03-21T05:23:38.400Z,97.02
2023-03-21T05:26:07.630Z,96.69
2023-03-21T05:28:36.713Z,96.84
2023-03-21T05:31:04.146Z,96.88
2023-03-21T05:33:30.776Z,96.75
2023-03-21T05:35:57.621Z,97.04
2023-03-21T05:38:25.339Z,96.87
2023-03-21T05:40:53.821Z,97.10
2023-03-21T05:43:20.325Z,97.58
2023-03-21T05:45:48.175Z,96.79
2023-03-21T05:48:14.848Z,96.77
2023-03-21T05:50:41.429Z,96.78
2023-03-21T05:53:08.105Z,97.01
2023-03-21T05:55:34.504Z,96.44
2023-03-21T05:58:00.964Z,96.48
2023-03-21T06:00:30.122Z,96.96
2023-03-21T06:02:57.132Z,96.61
2023-03-21T06:05:23.650Z,96.65
2023-03-21T06:07:50.228Z,97.24
2023-03-21T06:10:16.849Z,96.29
2023-03-21T06:12:44.334Z,96.70
2023-03-21T06:15:13.878Z,95.98
2023-03-21T06:17:40.938Z,95.97
2023-03-21T06:20:08.890Z,95.77
2023-03-21T06:22:36.044Z,96.52
2023-03-21T06:25:02.919Z,96.07
2023-03-21T06:27:29.397Z,95.96
2023-03-21T06:29:57.968Z,96.62
2023-03-21T06:32:24.736Z,96.69
2023-03-21T06:34:51.482Z,96.38
2023-03-21T06:37:18.267Z,96.61
2023-03-21T06:39:44.994Z,95.84
2023-03-21T06:42:12.174Z,95.95
2023-03-21T06:44:38.911Z,95.88
2023-03-21T06:47:05.846Z,96.12
2023-03-21T06:49:32.327Z,95.49
2023-03-21T06:51:58.660Z,96.05
2023-03-21T06:54:25.123Z,95.96
2023-03-21T06:56:51.570Z,95.54
2023-03-21T06:59:18.539Z,95.52
2023-03-21T07:01:44.937Z,94.87
2023-03-21T07:04:11.459Z,95.91
2023-03-21T07:06:38.251Z,95.39
2023-03-21T07:09:05.577Z,95.64
2023-03-21T07:11:34.636Z,95.66
2023-03-21T07:14:01.554Z,95.78
2023-03-21T07:16:27.991Z,95.58
2023-03-21T07:18:54.589Z,96.17
2023-03-21T07:21:21.033Z,96.07
2023-03-21T07:23:47.689Z,94.91
2023-03-21T07:26:16.215Z,95.08
2023-03-21T07:28:42.802Z,94.88
2023-03-21T07:31:14.679Z,95.06
2023-03-21T07:33:41.370Z,94.96
2023-03-21T07:36:15.594Z,95.33
2023-03-21T07:38:45.934Z,95.04
2023-03-21T07:41:13.091Z,95.13
2023-03-21T07:43:41.846Z,94.83
2023-03-21T07:46:08.459Z,95.09
2023-03-21T07:48:34.969Z,94.26
2023-03-21T07:51:02.322Z,94.91
2023-03-21T07:53:28.859Z,94.75
2023-03-21T07:55:56.847Z,94.68
2023-03-21T07:58:24.688Z,94.68
2023-03-21T08:00:53.041Z,94.21
2023-03-21T08:03:19.844Z,94.54
2023-03-21T08:05:46.608Z,94.40
2023-03-21T08:08:13.095Z,93.99
2023-03-21T08:10:41.859Z,93.98
2023-03-21T08:13:08.285Z,93.86
2023-03-21T08:15:34.658Z,94.08
2023-03-21T08:18:01.194Z,93.60
2023-03-21T08:20:27.989Z,93.64
2023-03-21T08:22:54.614Z,93.58
2023-03-21T08:25:21.987Z,93.66
2023-03-21T08:27:49.965Z,93.71
2023-03-21T08:30:19.474Z,93.44
2023-03-21T08:32:46.129Z,93.70
2023-03-21T08:35:15.993Z,93.37
2023-03-21T08:37:43.625Z,93.06
2023-03-21T08:40:16.058Z,93.88
2023-03-21T08:42:43.771Z,92.87
2023-03-21T08:45:11.659Z,93.45
2023-03-21T08:47:38.456Z,93.87
2023-03-21T08:50:07.841Z,93.40
2023-03-21T08:52:34.681Z,92.80
2023-03-21T08:55:02.278Z,92.69
2023-03-21T08:57:29.310Z,92.49
2023-03-21T08:59:55.792Z,92.76
2023-03-21T09:02:22.344Z,92.03
2023-03-21T09:04:48.901Z,91.34
2023-03-21T09:07:18.018Z,91.66
2023-03-21T09:09:45.957Z,91.26
2023-03-21T09:12:14.187Z,90.74
2023-03-21T09:14:43.666Z,90.66
2023-03-21T09:17:10.941Z,91.22
2023-03-21T09:19:38.760Z,90.58
2023-03-21T09:22:05.261Z,91.63
2023-03-21T09:24:31.750Z,90.97
2023-03-21T09:26:58.490Z,91.02
2023-03-21T09:29:25.430Z,90.53
2023-03-21T09:31:53.427Z,90.32
2023-03-21T09:34:20.197Z,90.49
2023-03-21T09:36:48.324Z,89.25
2023-03-21T09:39:16.817Z,89.75
2023-03-21T09:41:55.525Z,89.04
2023-03-21T09:44:48.634Z,88.96
2023-03-21T09:47:25.020Z,89.17
2023-03-21T09:50:12.900Z,89.00
2023-03-21T09:52:54.568Z,89.76
2023-03-21T09:55:26.317Z,88.69
2023-03-21T09:58:05.645Z,89.08
2023-03-21T10:00:40.277Z,89.63
2023-03-21T10:03:19.998Z,88.14
2023-03-21T10:05:46.816Z,88.20
2023-03-21T10:08:25.038Z,88.84
2023-03-21T10:10:55.735Z,87.95
2023-03-21T10:13:29.187Z,88.23
2023-03-21T10:15:59.653Z,87.51
2023-03-21T10:18:29.398Z,86.71
2023-03-21T10:20:56.614Z,85.93
2023-03-21T10:23:28.682Z,86.37
2023-03-21T10:25:59.657Z,85.94
2023-03-21T10:28:34.496Z,86.93
2023-03-21T10:31:12.438Z,84.56
2023-03-21T10:33:43.181Z,86.00
2023-03-21T10:36:31.723Z,85.11
2023-03-21T10:39:17.507Z,85.15
2023-03-21T10:41:43.910Z,85.49
2023-03-21T10:44:16.776Z,84.48
2023-03-21T10:46:57.874Z,84.98
2023-03-21T10:49:26.700Z,84.21
2023-03-21T10:51:59.165Z,83.24
2023-03-21T10:54:31.210Z,81.77
2023-03-21T10:57:05.748Z,82.19
2023-03-21T10:59:44.294Z,81.14
2023-03-21T11:02:21.218Z,81.13
2023-03-21T11:04:48.400Z,80.79
2023-03-21T11:07:16.229Z,80.27
2023-03-21T11:09:52.487Z,81.63
2023-03-21T11:12:29.422Z,81.44
2023-03-21T11:14:57.320Z,79.87
2023-03-21T11:17:29.156Z,80.75
2023-03-21T11:20:01.829Z,80.92
2023-03-21T11:22:43.426Z,79.58
2023-03-21T11:25:35.580Z,80.07
2023-03-21T11:28:09.611Z,79.50
2023-03-21T11:30:35.985Z,78.61
2023-03-21T11:33:06.831Z,78.78
2023-03-21T11:35:39.132Z,77.15
2023-03-21T11:38:23.308Z,77.14
2023-03-21T11:40:56.558Z,77.93
2023-03-21T11:43:23.558Z,75.21
2023-03-21T11:46:16.419Z,75.86
2023-03-21T11:48:45.527Z,77.06
2023-03-21T11:51:41.096Z,79.29
2023-03-21T11:54:31.242Z,77.56
2023-03-21T11:57:18.548Z,75.74
2023-03-21T12:00:07.667Z,76.17
2023-03-21T12:02:48.210Z,76.54
2023-03-21T12:05:23.677Z,77.48
2023-03-21T12:08:28.700Z,78.24
2023-03-21T12:11:00.409Z,76.65
2023-03-21T12:13:45.729Z,77.33
2023-03-21T12:16:41.319Z,78.56
2023-03-21T12:19:26.158Z,77.00
2023-03-21T12:22:13.064Z,77.22
2023-03-21T12:24:45.540Z,76.31
2023-03-21T12:27:42.018Z,77.97
2023-03-21T12:30:11.324Z,77.11
2023-03-21T12:32:54.503Z,76.73
2023-03-21T12:35:42.150Z,77.88
2023-03-21T12:38:29.628Z,76.92
2023-03-21T12:41:33.485Z,75.04
2023-03-21T12:44:05.516Z,76.27
2023-03-21T12:46:46.082Z,74.06
2023-03-21T12:49:25.574Z,73.33
2023-03-21T12:51:57.535Z,72.67
2023-03-21T12:54:30.529Z,67.18
2023-03-21T12:57:13.055Z,62.71
2023-03-21T12:59:47.554Z,61.39
2023-03-21T13:02:38.492Z,61.30
2023-03-21T13:05:20.344Z,65.86
2023-03-21T13:07:53.694Z,60.67
2023-03-21T13:10:22.021Z,60.41
2023-03-21T13:13:09.825Z,64.72
2023-03-21T13:15:57.150Z,61.69
2023-03-21T13:18:34.880Z,62.34
2023-03-21T13:21:14.976Z,62.52
2023-03-21T13:23:41.391Z,63.23
2023-03-21T13:26:13.541Z,60.06
2023-03-21T13:28:41.583Z,58.42
2023-03-21T13:31:24.915Z,61.15
2023-03-21T13:33:54.175Z,59.75
2023-03-21T13:36:32.052Z,62.19
2023-03-21T13:39:05.626Z,61.79
2023-03-21T13:41:35.941Z,61.65
2023-03-21T13:44:02.236Z,60.93
2023-03-21T13:46:28.671Z,57.50
2023-03-21T13:49:00.654Z,56.50
2023-03-21T13:51:36.236Z,57.79
2023-03-21T13:54:07.006Z,58.75
2023-03-21T13:56:48.797Z,59.93
2023-03-21T13:59:43.929Z,62.42
2023-03-21T14:02:13.337Z,63.41
2023-03-21T14:04:53.740Z,62.97
2023-03-21T14:07:31.214Z,64.80
2023-03-21T14:10:02.134Z,63.35
2023-03-21T14:12:34.712Z,64.88
2023-03-21T14:15:15.754Z,63.56
2023-03-21T14:17:56.630Z,65.19
2023-03-21T14:20:30.763Z,65.30
2023-03-21T14:22:57.667Z,65.08
2023-03-21T14:25:37.262Z,65.62
2023-03-21T14:28:14.163Z,65.73
2023-03-21T14:30:44.078Z,65.87
2023-03-21T14:33:23.146Z,66.74
2023-03-21T14:35:50.217Z,67.08
2023-03-21T14:38:23.213Z,65.94
2023-03-21T14:40:52.550Z,65.46
2023-03-21T14:43:20.882Z,65.63
2023-03-21T14:45:48.692Z,65.90
2023-03-21T14:48:17.221Z,66.93
2023-03-21T14:50:51.631Z,67.47
2023-03-21T14:53:37.763Z,68.27
2023-03-21T14:56:22.208Z,66.77
2023-03-21T14:58:49.828Z,67.23
2023-03-21T15:01:21.876Z,68.37
2023-03-21T15:03:51.495Z,68.91
2023-03-21T15:06:18.485Z,68.87
2023-03-21T15:08:59.882Z,68.10
2023-03-21T15:11:30.841Z,68.93
2023-03-21T15:14:00.917Z,69.57
2023-03-21T15:16:28.006Z,69.10
2023-03-21T15:18:54.931Z,69.36
2023-03-21T15:21:26.466Z,68.81
2023-03-21T15:23:58.748Z,69.18
2023-03-21T15:26:26.626Z,69.21
2023-03-21T15:28:58.695Z,69.49
2023-03-21T15:31:47.658Z,70.47
2023-03-21T15:34:27.639Z,70.29
2023-03-21T15:37:05.112Z,70.48
2023-03-21T15:39:33.826Z,70.75
2023-03-21T15:42:25.908Z,71.72
2023-03-21T15:44:54.904Z,71.98
2023-03-21T15:48:03.682Z,72.24
2023-03-21T15:50:37.711Z,72.02
2023-03-21T15:53:09.927Z,72.46
2023-03-21T15:55:39.341Z,71.26
2023-03-21T15:58:13.150Z,71.76
2023-03-21T16:00:43.813Z,72.16
2023-03-21T16:03:17.358Z,72.71
2023-03-21T16:06:04.919Z,72.15
2023-03-21T16:08:36.489Z,72.86
2023-03-21T16:11:08.132Z,73.36
2023-03-21T16:13:34.567Z,74.13
2023-03-21T16:16:01.006Z,73.55
2023-03-21T16:18:29.395Z,73.94
2023-03-21T16:20:57.491Z,74.33
2023-03-21T16:23:23.957Z,75.12
2023-03-21T16:25:56.006Z,75.23
2023-03-21T16:28:22.441Z,76.30
2023-03-21T16:30:48.917Z,77.63
2023-03-21T16:33:15.301Z,78.27
2023-03-21T16:35:42.141Z,79.92
2023-03-21T16:38:12.227Z,80.96
2023-03-21T16:40:44.104Z,81.62
2023-03-21T16:43:13.976Z,82.55
2023-03-21T16:45:41.615Z,82.72
2023-03-21T16:48:08.778Z,81.85
2023-03-21T16:50:40.149Z,83.00
2023-03-21T16:53:06.830Z,82.94
2023-03-21T16:55:34.743Z,83.29
2023-03-21T16:58:01.314Z,83.57
2023-03-21T17:00:30.833Z,83.28
2023-03-21T17:03:01.052Z,83.34
2023-03-21T17:05:30.135Z,83.17
2023-03-21T17:07:57.644Z,82.96
2023-03-21T17:10:27.701Z,82.38
2023-03-21T17:12:54.321Z,82.98
2023-03-21T17:15:21.346Z,82.97
2023-03-21T17:17:52.117Z,83.12
2023-03-21T17:20:26.811Z,83.37
2023-03-21T17:22:53.168Z,83.50
2023-03-21T17:25:19.975Z,83.10
2023-03-21T17:27:47.023Z,83.36
2023-03-21T17:30:24.440Z,83.76
2023-03-21T17:32:52.095Z,83.98
2023-03-21T17:35:19.805Z,84.49
2023-03-21T17:37:50.551Z,83.96
2023-03-21T17:40:23.877Z,84.24
2023-03-21T17:42:51.565Z,84.84
2023-03-21T17:45:21.029Z,84.67
2023-03-21T17:47:47.522Z,84.88
2023-03-21T17:50:21.292Z,84.98
2023-03-21T17:52:50.553Z,84.93
2023-03-21T17:55:19.516Z,85.11
2023-03-21T17:57:46.603Z,84.79
2023-03-21T18:00:20.865Z,84.95
2023-03-21T18:02:48.795Z,84.92
2023-03-21T18:05:15.907Z,84.78
2023-03-21T18:08:08.917Z,85.05
2023-03-21T18:10:30.335Z,84.95
2023-03-21T18:12:56.766Z,85.13
2023-03-21T18:15:25.264Z,85.49
2023-03-21T18:17:52.032Z,85.26
2023-03-21T18:20:20.950Z,85.54
2023-03-21T18:22:48.158Z,85.50
2023-03-21T18:25:16.221Z,86.05
2023-03-21T18:28:06.835Z,85.92
2023-03-21T18:30:50.421Z,86.05
2023-03-21T18:33:16.302Z,85.81
2023-03-21T18:35:42.681Z,86.37
2023-03-21T18:38:09.188Z,86.27
2023-03-21T18:40:36.422Z,85.86
2023-03-21T18:43:55.899Z,86.30
2023-03-21T18:45:49.595Z,86.74
2023-03-21T18:48:16.170Z,86.15
2023-03-21T18:50:42.806Z,86.54
2023-03-21T18:53:09.890Z,86.71
2023-03-21T18:55:46.112Z,86.51
2023-03-21T18:58:13.188Z,86.57
2023-03-21T19:00:41.198Z,86.73
2023-03-21T19:03:19.275Z,86.71
2023-03-21T19:05:58.645Z,86.76
2023-03-21T19:08:25.126Z,86.54
2023-03-21T19:10:51.998Z,86.32
2023-03-21T19:13:24.287Z,86.04
2023-03-21T19:15:50.726Z,86.37
2023-03-21T19:21:04.400Z,86.21
2023-03-21T19:23:43.533Z,86.28
2023-03-21T19:26:17.571Z,86.48
2023-03-21T19:28:44.108Z,86.07
2023-03-21T19:31:13.646Z,86.46
2023-03-21T19:33:40.661Z,86.28
2023-03-21T19:36:18.083Z,86.37
2023-03-21T19:38:48.153Z,86.66
2023-03-21T19:41:14.537Z,87.18
2023-03-21T19:43:52.766Z,87.12
2023-03-21T19:46:22.596Z,87.56
2023-03-21T19:48:50.027Z,87.85
2023-03-21T19:51:32.733Z,88.35
2023-03-21T19:54:02.541Z,88.33
2023-03-21T19:56:31.961Z,88.23
2023-03-21T19:58:59.032Z,88.12
2023-03-21T20:01:26.145Z,87.94
2023-03-21T20:03:53.110Z,87.62
2023-03-21T20:06:22.484Z,88.19
2023-03-21T20:09:47.235Z,88.18
2023-03-21T20:11:38.753Z,88.01
2023-03-21T20:14:06.246Z,88.44
2023-03-21T20:16:34.925Z,88.17
2023-03-21T20:19:03.682Z,88.30
2023-03-21T20:21:36.576Z,88.43
2023-03-21T20:24:09.342Z,88.47
2023-03-21T20:26:37.343Z,88.71
2023-03-21T20:29:28.786Z,88.91
2023-03-21T20:31:50.604Z,89.32
2023-03-21T20:34:18.033Z,89.36
2023-03-21T20:36:48.166Z,89.95
2023-03-21T20:39:15.351Z,89.77
2023-03-21T20:41:41.877Z,90.11
2023-03-21T20:46:54.954Z,89.85
2023-03-21T20:49:23.027Z,90.00
2023-03-21T20:54:37.028Z,89.77
2023-03-21T20:57:05.526Z,89.85
2023-03-21T20:59:32.710Z,90.14
2023-03-21T21:01:59.932Z,88.89
2023-03-21T21:04:48.241Z,89.38
2023-03-21T21:07:20.863Z,88.74
2023-03-21T21:09:48.618Z,88.80
2023-03-21T21:12:15.454Z,89.10
2023-03-21T21:14:43.645Z,88.64
2023-03-21T21:17:30.754Z,88.85
2023-03-21T21:19:57.000Z,88.66
2023-03-21T21:22:23.593Z,88.25
2023-03-21T21:24:50.012Z,88.27
2023-03-21T21:27:16.640Z,88.47
2023-03-21T21:29:46.648Z,88.81
2023-03-21T21:32:15.869Z,88.97
2023-03-21T21:34:42.532Z,88.03
2023-03-21T21:37:11.712Z,89.03
2023-03-21T21:39:38.524Z,88.40
2023-03-21T21:42:05.481Z,89.00
2023-03-21T21:44:32.112Z,89.52
2023-03-21T21:46:58.742Z,88.83
2023-03-21T21:49:26.770Z,89.84
2023-03-21T21:51:53.386Z,89.10
2023-03-21T21:54:19.862Z,89.93
2023-03-21T21:56:49.000Z,89.16
2023-03-21T21:59:22.350Z,88.60
2023-03-21T22:01:51.198Z,88.42
2023-03-21T22:04:18.086Z,87.88
2023-03-21T22:06:44.710Z,87.10
2023-03-21T22:09:11.290Z,86.82
2023-03-21T22:11:37.693Z,86.51
2023-03-21T22:14:04.363Z,85.99
2023-03-21T22:16:30.885Z,86.25
2023-03-21T22:18:57.368Z,85.93
2023-03-21T22:21:23.950Z,85.63
2023-03-21T22:23:50.578Z,85.10
2023-03-21T22:26:17.107Z,85.43
2023-03-21T22:28:43.728Z,84.48
2023-03-21T22:31:13.344Z,84.59
2023-03-21T22:33:39.895Z,84.08
2023-03-21T22:36:06.678Z,83.96
2023-03-21T22:38:34.442Z,84.17
2023-03-21T22:41:01.928Z,84.00
2023-03-21T22:43:28.753Z,83.87
2023-03-21T22:45:55.832Z,83.50
2023-03-21T22:48:22.311Z,84.00
2023-03-21T22:50:48.812Z,83.47
2023-03-21T22:53:15.410Z,83.50
2023-03-21T22:55:41.913Z,83.29
2023-03-21T22:58:08.386Z,83.53
2023-03-21T23:00:34.810Z,83.17
2023-03-21T23:03:03.907Z,83.31
2023-03-21T23:05:30.299Z,83.40
2023-03-21T23:07:56.670Z,83.83
2023-03-21T23:10:23.534Z,83.83
2023-03-21T23:12:51.541Z,83.54
2023-03-21T23:15:17.999Z,83.61
2023-03-21T23:17:44.354Z,84.41
2023-03-21T23:20:13.932Z,84.21
2023-03-21T23:22:41.160Z,83.78
2023-03-21T23:25:08.198Z,83.40
2023-03-21T23:27:35.392Z,83.54
2023-03-21T23:30:02.911Z,83.64
2023-03-21T23:32:29.258Z,83.76
2023-03-21T23:34:55.656Z,83.58
2023-03-21T23:37:25.098Z,83.97
2023-03-21T23:39:55.342Z,83.87
2023-03-21T23:42:23.193Z,83.73
2023-03-21T23:44:49.524Z,83.58
2023-03-21T23:47:16.072Z,83.60
2023-03-21T23:49:44.677Z,83.91
2023-03-21T23:52:11.850Z,83.72
2023-03-21T23:54:38.331Z,83.60
2023-03-21T23:57:04.839Z,83.89
2023-03-21T23:59:31.194Z,84.14
